LOWS/SZG METAR and TAF weather

Enter ICAO airport designator
Station Type Date Time Source
LOWS METAR 2019/06/17 12:50 UTC NOAA

LOWS 171250Z 02009KT 9999 FEW040 SCT045 BKN300 25/15 Q1019 NOSIG


Station Type Date Time Source
LOWS Decoded METAR 2019/06/17 12:50 UTC NOAA

Salzburg-Flughafen, Austria (LOWS) 47-48N 013-00E 450M
Jun 17, 2019 - 08:50 AM EDT / 2019.06.17 1250 UTC
Wind: from the NNE (020 degrees) at 10 MPH (9 KT):0
Visibility: greater than 7 mile(s):0
Sky conditions: mostly cloudy
Temperature: 77 F (25 C)
Dew Point: 59 F (15 C)
Relative Humidity: 53%
Pressure (altimeter): 30.09 in. Hg (1019 hPa)
ob: LOWS 171250Z 02009KT 9999 FEW040 SCT045 BKN300 25/15 Q1019 NOSIG
cycle: 13

Station Type Date Time Source
LOWS TAF 2019/06/17 12:21 UTC NOAA

TAF LOWS 171115Z 1712/1812 04006KT 9999 SCT050 SCT300 TX27/1812Z TN14/1803Z
TEMPO 1712/1718 03010KT
BECMG 1718/1720 15005KT CAVOK
BECMG 1807/1809 03005KT 9999 FEW050 BKN300

Example: see airport list